Time;durP1;ratioP1;P1;durP2;ratioP2;P2;SDS_P1;SDS_P2;PMS_P1;PMS_P2;Temp;Humidity;BMP_temperature;BMP_pressure;BME280_temperature;BME280_humidity;BME280_pressure;Samples;Min_cycle;Max_cycle;Signal;HPM_P1;HPM_P2
2023/04/11 00:00:17;;;;;;;7.60;4.00;;;;;;;9.22;100.00;100416.76;106439;1255;73911;-58
2023/04/11 00:02:46;;;;;;;8.40;4.10;;;;;;;9.19;100.00;100415.36;105926;1251;59721;-55
2023/04/11 00:05:15;;;;;;;7.20;4.10;;;;;;;9.14;100.00;100416.79;105977;1254;61247;-54
2023/04/11 00:07:43;;;;;;;7.60;4.10;;;;;;;9.11;100.00;100419.17;105872;1251;74596;-54
2023/04/11 00:10:13;;;;;;;8.70;4.30;;;;;;;9.07;100.00;100420.65;106197;1254;67623;-57
2023/04/11 00:12:43;;;;;;;9.90;4.00;;;;;;;9.03;100.00;100427.45;106111;1256;72895;-57
2023/04/11 00:15:11;;;;;;;11.70;4.40;;;;;;;8.98;100.00;100429.36;105727;1255;60890;-55
2023/04/11 00:17:44;;;;;;;7.30;3.80;;;;;;;8.94;100.00;100430.67;106048;1250;59946;-54
2023/04/11 00:20:13;;;;;;;7.00;3.80;;;;;;;8.91;100.00;100429.14;105880;1250;74330;-54
2023/04/11 00:22:46;;;;;;;7.20;3.80;;;;;;;8.87;100.00;100431.15;105923;1250;67524;-57
2023/04/11 00:25:14;;;;;;;8.50;4.40;;;;;;;8.83;100.00;100429.15;105531;1251;74508;-54
2023/04/11 00:27:43;;;;;;;8.00;4.80;;;;;;;8.77;100.00;100428.42;105916;1256;61276;-58
2023/04/11 00:30:29;;;;;;;11.10;4.00;;;;;;;8.73;100.00;100430.61;105547;1254;59525;-57
2023/04/11 00:32:58;;;;;;;11.30;4.20;;;;;;;8.69;100.00;100434.36;105736;1256;73560;-54
2023/04/11 00:35:33;;;;;;;8.70;4.00;;;;;;;8.63;100.00;100429.10;106065;1254;68532;-56
2023/04/11 00:38:03;;;;;;;8.70;4.10;;;;;;;8.59;100.00;100431.65;105895;1254;72477;-55
2023/04/11 00:40:32;;;;;;;7.00;4.10;;;;;;;8.55;100.00;100427.20;106143;1256;60899;-56
2023/04/11 00:43:21;;;;;;;8.70;4.30;;;;;;;8.52;100.00;100424.23;105452;1250;62664;-55
2023/04/11 00:46:16;;;;;;;9.10;3.80;;;;;;;8.51;100.00;100424.84;105729;1250;74275;-56
2023/04/11 00:48:44;;;;;;;9.70;4.00;;;;;;;8.47;100.00;100425.07;105784;1256;68725;-55
2023/04/11 00:51:24;;;;;;;5.50;3.80;;;;;;;8.44;100.00;100427.48;105576;1254;73126;-54
2023/04/11 00:53:55;;;;;;;8.00;4.20;;;;;;;8.41;100.00;100435.97;105776;1264;60961;-58
2023/04/11 00:56:24;;;;;;;9.40;4.60;;;;;;;8.37;100.00;100432.39;105814;1250;61873;-55
2023/04/11 00:58:53;;;;;;;10.70;4.30;;;;;;;8.32;100.00;100431.49;105902;1250;74517;-55
2023/04/11 01:01:22;;;;;;;10.10;4.20;;;;;;;8.31;100.00;100432.34;105881;1250;68443;-54
2023/04/11 01:03:52;;;;;;;7.70;4.20;;;;;;;8.31;100.00;100439.23;105558;1256;73653;-55
2023/04/11 01:06:22;;;;;;;8.50;4.60;;;;;;;8.31;100.00;100436.86;105728;1256;62079;-54
2023/04/11 01:08:55;;;;;;;12.70;4.30;;;;;;;8.28;100.00;100436.75;105940;1251;61904;-55
2023/04/11 01:11:25;;;;;;;7.40;4.20;;;;;;;8.26;100.00;100437.73;106036;1255;73924;-55
2023/04/11 01:13:54;;;;;;;9.80;4.90;;;;;;;8.22;100.00;100436.05;105944;1250;68345;-56
2023/04/11 01:16:23;;;;;;;9.90;4.00;;;;;;;8.15;100.00;100437.80;105616;1256;73302;-54
2023/04/11 01:18:51;;;;;;;9.50;4.70;;;;;;;8.11;100.00;100440.37;105661;1259;61200;-54
2023/04/11 01:21:21;;;;;;;8.10;4.20;;;;;;;8.06;100.00;100444.80;105761;1256;60442;-56
2023/04/11 01:23:51;;;;;;;11.20;4.20;;;;;;;8.02;100.00;100448.15;105905;1256;75439;-55
2023/04/11 01:26:20;;;;;;;6.90;3.60;;;;;;;8.00;100.00;100451.46;105766;1257;67603;-53
2023/04/11 01:28:50;;;;;;;8.20;4.00;;;;;;;7.99;100.00;100443.70;106010;1254;73502;-56
2023/04/11 01:31:32;;;;;;;8.90;4.60;;;;;;;7.96;100.00;100433.13;105719;1254;60350;-54
2023/04/11 01:34:01;;;;;;;11.50;4.80;;;;;;;7.93;100.00;100418.89;105786;1250;60696;-55
2023/04/11 01:36:31;;;;;;;6.30;3.90;;;;;;;7.91;100.00;100415.30;105681;1251;74533;-54
2023/04/11 01:39:00;;;;;;;7.40;4.30;;;;;;;7.88;100.00;100423.19;105916;1256;66698;-54
2023/04/11 01:41:29;;;;;;;7.00;3.90;;;;;;;7.85;100.00;100432.67;105954;1251;74137;-58
2023/04/11 01:44:03;;;;;;;7.40;4.00;;;;;;;7.82;100.00;100430.09;105733;1256;61691;-54
2023/04/11 01:46:31;;;;;;;7.10;3.80;;;;;;;7.81;100.00;100428.60;106046;1264;60792;-57
2023/04/11 01:49:00;;;;;;;6.50;3.70;;;;;;;7.81;100.00;100426.39;105759;1255;75388;-55
2023/04/11 01:51:29;;;;;;;10.30;4.20;;;;;;;7.79;100.00;100427.06;106110;1254;67345;-55
2023/04/11 01:53:59;;;;;;;8.40;4.30;;;;;;;7.80;100.00;100425.29;105962;1254;74406;-55
2023/04/11 01:56:31;;;;;;;9.10;4.70;;;;;;;7.80;100.00;100420.88;106068;1255;61153;-56
2023/04/11 01:59:01;;;;;;;9.10;4.00;;;;;;;7.84;100.00;100418.90;105833;1253;60281;-54
2023/04/11 02:01:48;;;;;;;6.70;3.90;;;;;;;7.90;100.00;100420.53;105915;1256;75276;-54
2023/04/11 02:04:17;;;;;;;9.90;3.70;;;;;;;7.94;100.00;100421.34;106207;1256;68631;-59
2023/04/11 02:06:46;;;;;;;7.20;3.70;;;;;;;7.98;100.00;100423.20;105919;1255;73511;-54
2023/04/11 02:09:15;;;;;;;7.10;3.80;;;;;;;8.01;100.00;100418.55;106072;1255;61670;-55
2023/04/11 02:11:44;;;;;;;7.40;3.90;;;;;;;8.04;100.00;100420.96;105953;1254;60613;-54
2023/04/11 02:14:13;;;;;;;9.20;4.00;;;;;;;8.09;100.00;100423.13;105838;1251;75202;-55
2023/04/11 02:16:54;;;;;;;7.40;3.70;;;;;;;8.11;100.00;100421.45;105946;1256;66808;-54
2023/04/11 02:19:24;;;;;;;11.40;4.20;;;;;;;8.12;100.00;100422.71;106079;1251;74264;-55
2023/04/11 02:21:53;;;;;;;10.30;4.50;;;;;;;8.14;100.00;100420.33;106138;1256;60538;-57
2023/04/11 02:24:22;;;;;;;7.40;4.00;;;;;;;8.16;100.00;100421.44;105665;1255;60418;-54
2023/04/11 02:26:51;;;;;;;7.10;4.10;;;;;;;8.18;100.00;100420.86;105991;1251;74407;-58
2023/04/11 02:29:27;;;;;;;7.30;3.50;;;;;;;8.18;100.00;100420.23;106124;1256;67328;-54
2023/04/11 02:31:55;;;;;;;8.20;3.80;;;;;;;8.15;100.00;100416.02;106214;1254;74071;-55
2023/04/11 02:34:24;;;;;;;7.60;4.50;;;;;;;8.12;100.00;100415.48;105800;1256;60586;-55
2023/04/11 02:36:57;;;;;;;6.30;3.80;;;;;;;8.09;100.00;100417.91;105874;1256;62272;-54
2023/04/11 02:39:25;;;;;;;9.80;4.20;;;;;;;8.07;100.00;100420.34;106319;1253;74181;-54
2023/04/11 02:41:56;;;;;;;14.80;4.60;;;;;;;8.04;100.00;100422.39;106458;1254;68673;-54
2023/04/11 02:44:25;;;;;;;8.10;3.60;;;;;;;8.03;100.00;100425.92;106201;1256;74422;-55
2023/04/11 02:46:54;;;;;;;6.80;3.60;;;;;;;8.03;100.00;100427.52;105839;1257;61151;-55
2023/04/11 02:49:25;;;;;;;8.30;4.00;;;;;;;8.02;100.00;100421.98;106327;1251;60767;-54
2023/04/11 02:51:55;;;;;;;6.80;3.80;;;;;;;8.02;100.00;100423.10;106399;1253;75420;-54
2023/04/11 02:54:24;;;;;;;8.00;3.70;;;;;;;7.99;100.00;100418.70;106021;1256;68292;-58
2023/04/11 02:56:54;;;;;;;6.40;3.90;;;;;;;7.97;100.00;100414.80;109408;1250;72670;-55
2023/04/11 02:59:23;;;;;;;8.70;4.00;;;;;;;7.96;100.00;100410.06;109381;1250;59532;-55
2023/04/11 03:01:59;;;;;;;8.30;4.20;;;;;;;7.97;100.00;100412.65;109388;1249;60293;-55
2023/04/11 03:04:28;;;;;;;7.30;4.20;;;;;;;8.00;100.00;100408.40;109277;1251;74576;-55
2023/04/11 03:07:06;;;;;;;8.40;3.70;;;;;;;8.05;100.00;100404.43;109423;1250;68136;-54
2023/04/11 03:09:36;;;;;;;10.70;4.20;;;;;;;8.10;100.00;100406.68;109420;1256;73827;-55
2023/04/11 03:12:07;;;;;;;9.60;3.70;;;;;;;8.15;100.00;100400.05;109352;1250;60335;-58
2023/04/11 03:14:36;;;;;;;7.50;4.20;;;;;;;8.22;100.00;100404.02;109397;1250;61258;-55
2023/04/11 03:17:08;;;;;;;;;;;;;;;8.28;100.00;100397.96;109531;1254;73572;-55
2023/04/11 03:19:37;;;;;;;9.50;4.00;;;;;;;8.37;100.00;100394.76;109420;1251;67726;-55
2023/04/11 03:22:05;;;;;;;6.50;3.70;;;;;;;8.53;100.00;100386.80;109340;1251;73663;-58
2023/04/11 03:24:40;;;;;;;8.10;4.00;;;;;;;8.79;100.00;100390.79;109495;1252;60728;-55
2023/04/11 03:27:09;;;;;;;;;;;;;;;9.07;100.00;100386.32;109421;1249;61306;-54
2023/04/11 03:29:42;;;;;;;8.30;3.90;;;;;;;9.35;100.00;100385.66;109420;1250;74724;-55
2023/04/11 03:32:16;;;;;;;6.50;3.20;;;;;;;9.66;100.00;100388.67;109342;1256;68035;-55
2023/04/11 03:34:45;;;;;;;10.90;4.10;;;;;;;10.03;100.00;100382.71;109464;1254;73533;-55
2023/04/11 03:37:14;;;;;;;6.80;3.50;;;;;;;10.41;100.00;100381.08;109369;1251;59392;-55
2023/04/11 03:39:42;;;;;;;9.40;4.00;;;;;;;10.75;100.00;100382.71;109382;1250;60305;-55
2023/04/11 03:42:11;;;;;;;8.20;4.20;;;;;;;11.08;100.00;100380.02;109440;1253;74885;-57
2023/04/11 03:44:40;;;;;;;15.70;7.30;;;;;;;11.35;100.00;100377.63;109413;1251;67726;-54
2023/04/11 03:47:09;;;;;;;25.40;15.10;;;;;;;11.58;100.00;100378.05;109374;1251;73650;-54
2023/04/11 03:49:41;;;;;;;28.30;18.80;;;;;;;11.82;100.00;100378.21;109379;1249;61355;-58
2023/04/11 03:52:10;;;;;;;17.80;11.00;;;;;;;12.03;100.00;100381.02;109408;1253;60166;-56
2023/04/11 03:54:38;;;;;;;10.30;6.20;;;;;;;12.25;100.00;100374.54;109322;1250;74746;-55
2023/04/11 03:57:09;;;;;;;6.90;4.20;;;;;;;12.47;100.00;100378.71;109497;1249;67072;-54
2023/04/11 03:59:39;;;;;;;10.00;6.20;;;;;;;12.69;100.00;100383.16;109508;1250;71643;-55
2023/04/11 04:02:09;;;;;;;8.80;4.30;;;;;;;12.88;100.00;100387.28;109254;1250;61329;-55
2023/04/11 04:04:47;;;;;;;9.20;4.40;;;;;;;12.95;100.00;100385.41;109335;1251;60185;-54
2023/04/11 04:07:26;;;;;;;8.60;5.00;;;;;;;13.04;100.00;100386.02;109344;1251;74994;-55
2023/04/11 04:09:59;;;;;;;9.10;4.70;;;;;;;13.15;100.00;100387.66;109411;1250;68405;-54
2023/04/11 04:12:27;;;;;;;11.10;4.50;;;;;;;13.35;99.22;100384.45;109371;1251;73665;-55
2023/04/11 04:15:24;;;;;;;15.90;10.60;;;;;;;13.59;94.33;100381.05;109291;1251;61762;-55
2023/04/11 04:17:57;;;;;;;9.90;5.10;;;;;;;13.76;85.86;100380.69;109380;1251;61342;-54
2023/04/11 04:20:41;;;;;;;9.20;4.70;;;;;;;13.84;81.96;100382.79;109303;1251;73775;-56
2023/04/11 04:23:16;;;;;;;12.30;6.40;;;;;;;13.87;81.50;100374.52;109376;1251;66893;-55
2023/04/11 04:26:04;;;;;;;10.10;5.40;;;;;;;14.07;77.95;100378.92;109382;1251;73590;-58
2023/04/11 04:28:44;;;;;;;26.00;18.30;;;;;;;14.24;75.72;100374.95;109369;1251;61317;-57
2023/04/11 04:31:21;;;;;;;11.50;7.50;;;;;;;14.32;72.46;100377.75;109385;1251;61408;-55
2023/04/11 04:33:50;;;;;;;9.00;5.90;;;;;;;14.42;68.14;100370.84;109354;1251;74792;-55
2023/04/11 04:36:27;;;;;;;8.20;4.20;;;;;;;14.42;66.36;100374.79;109327;1256;68442;-58
2023/04/11 04:39:00;;;;;;;8.10;4.20;;;;;;;14.46;66.77;100377.58;109471;1251;72527;-56
2023/04/11 04:41:33;;;;;;;7.80;4.10;;;;;;;14.52;65.22;100371.75;109310;1251;61303;-56
2023/04/11 04:44:03;;;;;;;7.70;4.10;;;;;;;14.58;64.92;100371.39;109388;1251;60264;-56
2023/04/11 04:46:45;;;;;;;10.70;5.50;;;;;;;14.74;63.33;100370.30;109420;1251;75075;-55
2023/04/11 04:49:13;;;;;;;12.50;4.60;;;;;;;14.95;61.77;100376.39;109410;1251;68317;-59
2023/04/11 04:51:42;;;;;;;13.00;4.90;;;;;;;15.03;59.01;100372.64;109385;1251;73553;-55
2023/04/11 04:54:14;;;;;;;5.90;3.40;;;;;;;15.03;58.96;100371.80;109308;1251;61550;-56
2023/04/11 04:56:44;;;;;;;11.80;3.20;;;;;;;15.14;58.20;100365.13;109349;1251;59998;-55
2023/04/11 04:59:14;;;;;;;6.00;3.30;;;;;;;15.25;57.41;100367.08;109337;1251;73979;-55
2023/04/11 05:01:45;;;;;;;8.30;3.50;;;;;;;15.44;56.28;100367.29;109305;1252;67024;-56
2023/04/11 05:04:15;;;;;;;7.40;3.00;;;;;;;15.45;54.95;100363.48;109315;1251;73566;-56
2023/04/11 05:06:48;;;;;;;7.30;3.10;;;;;;;15.36;55.15;100360.14;109346;1251;60477;-55
2023/04/11 05:09:16;;;;;;;20.40;11.60;;;;;;;15.20;55.27;100357.24;109355;1251;61304;-60
2023/04/11 05:11:46;;;;;;;11.50;6.30;;;;;;;14.95;57.26;100356.52;109335;1253;74517;-58
2023/04/11 05:14:15;;;;;;;12.00;6.00;;;;;;;14.67;58.76;100356.76;109400;1251;68012;-57
2023/04/11 05:16:43;;;;;;;9.90;3.50;;;;;;;14.43;60.67;100351.60;109365;1251;73835;-56
2023/04/11 05:19:13;;;;;;;10.40;5.00;;;;;;;14.30;62.08;100355.18;109362;1251;60922;-59
2023/04/11 05:21:45;;;;;;;7.40;3.30;;;;;;;14.25;64.34;100365.79;109346;1251;60596;-56
2023/04/11 05:24:15;;;;;;;8.40;3.90;;;;;;;14.22;65.47;100357.33;109346;1251;74896;-56
2023/04/11 05:26:45;;;;;;;7.90;3.40;;;;;;;14.31;65.19;100351.58;109326;1251;67239;-57
2023/04/11 05:29:16;;;;;;;11.10;3.70;;;;;;;14.42;63.62;100346.42;109273;1251;73362;-59
2023/04/11 05:31:50;;;;;;;6.40;3.00;;;;;;;14.49;63.46;100337.63;109277;1254;61389;-58
2023/04/11 05:34:19;;;;;;;6.00;2.80;;;;;;;14.53;63.99;100329.02;109339;1251;60315;-55
2023/04/11 05:36:49;;;;;;;7.10;3.30;;;;;;;14.49;64.45;100332.95;109447;1251;73832;-55
2023/04/11 05:39:17;;;;;;;8.00;3.00;;;;;;;14.44;65.50;100333.48;109340;1251;68855;-56
2023/04/11 05:41:46;;;;;;;6.80;2.90;;;;;;;14.37;63.83;100330.98;109363;1250;72629;-57
2023/04/11 05:44:15;;;;;;;6.70;3.00;;;;;;;14.24;64.01;100337.36;109361;1251;61545;-55
2023/04/11 05:46:44;;;;;;;6.40;2.60;;;;;;;14.08;65.76;100349.03;109404;1251;61326;-56
2023/04/11 05:49:12;;;;;;;8.20;4.30;;;;;;;13.92;68.22;100349.28;109371;1251;74794;-59
2023/04/11 05:51:40;;;;;;;8.10;3.10;;;;;;;13.94;72.05;100353.27;109370;1251;68406;-56
2023/04/11 05:54:09;;;;;;;8.10;3.80;;;;;;;14.06;70.56;100353.99;109394;1251;72612;-57
2023/04/11 05:56:41;;;;;;;7.20;3.30;;;;;;;14.22;68.20;100358.45;109396;1251;61132;-57
2023/04/11 05:59:11;;;;;;;8.40;3.20;;;;;;;14.48;67.38;100354.89;109385;1251;60466;-60
2023/04/11 06:01:40;;;;;;;8.30;3.00;;;;;;;14.75;64.39;100359.63;109382;1251;75318;-54
2023/04/11 06:04:08;;;;;;;6.50;3.10;;;;;;;14.94;61.72;100361.86;109435;1251;66901;-57
2023/04/11 06:06:37;;;;;;;8.40;3.60;;;;;;;15.10;61.67;100353.91;109477;1249;73419;-57
2023/04/11 06:09:08;;;;;;;8.50;3.10;;;;;;;15.24;60.93;100352.13;109404;1249;61410;-59
2023/04/11 06:11:36;;;;;;;5.60;2.50;;;;;;;15.45;60.26;100343.48;109469;1251;60423;-57
2023/04/11 06:14:04;;;;;;;7.60;3.30;;;;;;;15.79;58.03;100335.36;109475;1249;74643;-58
2023/04/11 06:16:35;;;;;;;6.20;2.50;;;;;;;16.14;54.92;100328.64;109496;1249;68185;-57
2023/04/11 06:19:04;;;;;;;6.10;3.40;;;;;;;16.45;51.57;100317.80;109332;1251;73670;-57
2023/04/11 06:21:32;;;;;;;7.70;3.10;;;;;;;16.68;50.92;100318.67;109421;1249;61535;-56
2023/04/11 06:24:04;;;;;;;6.20;3.00;;;;;;;16.95;48.10;100314.46;109488;1251;61354;-55
2023/04/11 06:26:36;;;;;;;4.60;2.50;;;;;;;17.18;46.30;100317.05;109469;1250;74140;-55
2023/04/11 06:29:05;;;;;;;5.60;3.60;;;;;;;17.40;45.87;100319.17;109485;1250;68498;-55
2023/04/11 06:31:33;;;;;;;4.70;2.70;;;;;;;17.64;44.00;100307.15;109444;1249;73619;-54
2023/04/11 06:34:01;;;;;;;8.00;3.20;;;;;;;17.69;43.11;100308.97;109432;1250;61332;-55
2023/04/11 06:36:31;;;;;;;9.40;2.90;;;;;;;17.69;42.51;100304.99;109458;1249;61678;-55
2023/04/11 06:39:00;;;;;;;6.40;3.10;;;;;;;17.78;42.49;100300.28;109466;1249;73701;-54
2023/04/11 06:41:28;;;;;;;6.90;3.90;;;;;;;17.92;41.90;100300.70;109421;1251;68949;-55
2023/04/11 06:43:56;;;;;;;6.30;2.90;;;;;;;17.96;42.10;100291.15;109499;1250;72990;-54
2023/04/11 06:46:31;;;;;;;6.10;2.40;;;;;;;17.89;41.51;100281.27;109424;1249;60386;-56
2023/04/11 06:49:00;;;;;;;5.00;2.70;;;;;;;17.65;41.55;100282.24;109427;1249;61474;-55
2023/04/11 06:51:28;;;;;;;9.70;5.60;;;;;;;17.29;41.96;100279.94;109500;1250;74739;-55
2023/04/11 06:53:57;;;;;;;8.60;3.40;;;;;;;16.97;43.73;100274.69;109510;1250;67049;-54
2023/04/11 06:56:26;;;;;;;4.80;2.10;;;;;;;16.63;44.00;100279.14;109456;1250;73313;-58
2023/04/11 06:59:02;;;;;;;8.10;2.50;;;;;;;16.20;45.46;100271.17;109410;1250;60022;-54
2023/04/11 07:01:36;;;;;;;5.80;2.60;;;;;;;15.86;47.13;100275.05;109452;1249;61382;-56
2023/04/11 07:04:05;;;;;;;11.00;2.10;;;;;;;15.78;49.40;100272.63;109495;1249;73741;-55
2023/04/11 07:06:39;;;;;;;9.20;2.90;;;;;;;16.04;50.84;100263.66;109441;1250;68699;-55
2023/04/11 07:09:13;;;;;;;7.00;2.70;;;;;;;16.57;49.29;100264.83;109472;1249;73391;-55
2023/04/11 07:11:42;;;;;;;7.50;3.10;;;;;;;17.08;45.52;100260.71;109450;1249;60351;-55
2023/04/11 07:14:16;;;;;;;5.30;2.20;;;;;;;17.38;43.95;100258.77;109453;1250;60486;-56
2023/04/11 07:16:46;;;;;;;4.70;2.80;;;;;;;17.51;43.30;100253.55;109481;1250;74958;-55
2023/04/11 07:19:14;;;;;;;7.10;2.70;;;;;;;17.45;42.45;100255.52;109474;1250;67731;-55
2023/04/11 07:21:42;;;;;;;9.60;7.10;;;;;;;17.29;43.40;100255.70;109464;1250;73645;-55
2023/04/11 07:24:12;;;;;;;10.40;5.00;;;;;;;17.28;43.82;100253.13;109395;1249;60050;-55
2023/04/11 07:26:41;;;;;;;18.00;11.00;;;;;;;17.38;43.73;100257.41;109440;1250;59432;-56
2023/04/11 07:29:10;;;;;;;11.70;3.50;;;;;;;17.70;43.76;100256.01;109454;1249;75001;-55
2023/04/11 07:31:43;;;;;;;8.70;3.70;;;;;;;18.07;42.62;100249.44;109520;1250;68141;-55
2023/04/11 07:34:12;;;;;;;5.70;2.00;;;;;;;18.44;41.55;100247.47;109444;1249;74791;-54
2023/04/11 07:36:42;;;;;;;5.50;2.10;;;;;;;18.76;40.21;100243.08;109392;1249;61293;-55
2023/04/11 07:39:11;;;;;;;6.80;2.60;;;;;;;18.89;38.94;100241.04;109487;1249;61099;-54
2023/04/11 07:41:39;;;;;;;5.90;2.10;;;;;;;18.82;39.48;100249.74;109523;1249;74892;-56
2023/04/11 07:44:08;;;;;;;7.80;2.50;;;;;;;18.79;39.05;100250.58;109473;1249;67722;-54
2023/04/11 07:46:36;;;;;;;5.80;1.80;;;;;;;18.81;37.81;100249.19;109391;1250;72665;-55
2023/04/11 07:49:05;;;;;;;4.80;1.80;;;;;;;18.79;37.02;100260.09;109473;1250;61381;-54
2023/04/11 07:51:34;;;;;;;8.00;2.10;;;;;;;18.72;36.50;100252.45;109464;1249;61308;-54
2023/04/11 07:54:04;;;;;;;4.80;1.30;;;;;;;18.61;37.40;100245.11;109432;1249;74636;-54
2023/04/11 07:56:32;;;;;;;5.20;2.10;;;;;;;18.78;37.23;100242.11;109409;1249;67843;-55
2023/04/11 07:59:03;;;;;;;5.80;2.40;;;;;;;18.82;37.53;100240.77;109448;1249;73727;-55
2023/04/11 08:01:32;;;;;;;3.90;1.80;;;;;;;18.85;37.46;100240.39;109461;1249;61085;-54
2023/04/11 08:04:00;;;;;;;4.00;1.70;;;;;;;18.72;37.33;100240.84;109433;1249;61205;-55
2023/04/11 08:06:30;;;;;;;4.60;1.80;;;;;;;18.44;37.81;100233.59;109387;1249;74034;-57
2023/04/11 08:08:59;;;;;;;3.30;1.70;;;;;;;18.20;38.90;100224.01;109480;1250;66955;-54
2023/04/11 08:11:28;;;;;;;5.20;2.20;;;;;;;18.29;40.05;100219.42;109457;1250;72416;-55
2023/04/11 08:14:03;;;;;;;4.60;1.50;;;;;;;18.58;39.92;100214.52;109408;1249;61501;-57
2023/04/11 08:16:34;;;;;;;3.50;1.70;;;;;;;18.72;38.82;100200.50;109414;1250;60859;-55
2023/04/11 08:19:03;;;;;;;6.90;2.40;;;;;;;18.82;38.81;100198.34;109450;1249;74649;-54
2023/04/11 08:21:36;;;;;;;4.40;2.00;;;;;;;18.85;38.58;100210.86;109468;1249;66838;-57
2023/04/11 08:24:07;;;;;;;5.40;1.60;;;;;;;18.75;38.67;100202.19;109449;1250;72466;-54
2023/04/11 08:26:35;;;;;;;3.80;1.60;;;;;;;18.77;39.20;100196.88;109386;1250;61210;-54
2023/04/11 08:29:04;;;;;;;4.30;1.60;;;;;;;18.90;38.97;100195.42;109458;1250;59931;-54
2023/04/11 08:31:33;;;;;;;3.60;1.90;;;;;;;18.91;38.68;100192.11;109453;1249;75170;-55
2023/04/11 08:34:02;;;;;;;5.70;1.80;;;;;;;18.74;38.53;100195.45;109471;1250;66967;-54
2023/04/11 08:36:34;;;;;;;4.60;2.00;;;;;;;18.50;38.91;100197.28;109404;1250;72684;-55
2023/04/11 08:39:03;;;;;;;4.60;1.60;;;;;;;18.36;39.87;100198.30;109459;1249;59602;-55
2023/04/11 08:41:34;;;;;;;4.60;1.80;;;;;;;18.40;40.11;100189.24;109450;1249;59641;-57
2023/04/11 08:44:02;;;;;;;3.90;1.50;;;;;;;18.52;40.02;100185.33;109324;1250;75015;-56
2023/04/11 08:46:31;;;;;;;5.40;1.80;;;;;;;18.62;39.91;100178.02;109403;1249;68037;-56
2023/04/11 08:49:00;;;;;;;5.10;1.90;;;;;;;18.77;39.69;100176.23;109412;1250;73479;-56
2023/04/11 08:51:28;;;;;;;4.50;1.70;;;;;;;18.86;39.25;100169.79;109449;1250;61253;-55
2023/04/11 08:54:04;;;;;;;5.60;2.10;;;;;;;18.95;39.37;100164.49;109458;1249;61020;-55
2023/04/11 08:56:34;;;;;;;6.70;1.60;;;;;;;19.06;39.07;100157.85;109330;1250;72819;-55
2023/04/11 08:59:07;;;;;;;4.80;1.60;;;;;;;19.11;39.35;100158.30;109487;1249;67354;-54
2023/04/11 09:01:39;;;;;;;6.80;1.80;;;;;;;19.13;38.96;100144.55;109377;1250;73401;-55
2023/04/11 09:04:10;;;;;;;5.10;1.80;;;;;;;19.09;38.75;100144.98;109457;1249;61079;-56
2023/04/11 09:06:38;;;;;;;4.90;1.50;;;;;;;18.86;38.94;100153.29;109452;1249;60758;-55
2023/04/11 09:09:08;;;;;;;6.90;1.70;;;;;;;18.74;38.98;100141.11;109430;1249;73451;-55
2023/04/11 09:11:52;;;;;;;5.70;1.90;;;;;;;18.60;39.63;100138.08;109285;1250;68463;-55
2023/04/11 09:14:25;;;;;;;3.90;1.50;;;;;;;18.47;40.68;100133.41;109450;1250;73568;-55
2023/04/11 09:16:58;;;;;;;3.20;1.20;;;;;;;18.34;40.21;100125.68;109369;1249;61271;-57
2023/04/11 09:19:28;;;;;;;6.40;1.50;;;;;;;18.12;41.04;100125.46;109241;1249;301304;-55
2023/04/11 09:22:01;;;;;;;3.90;1.50;;;;;;;17.97;41.81;100119.79;109363;1250;75639;-55
2023/04/11 09:24:29;;;;;;;7.10;1.80;;;;;;;17.88;42.86;100120.98;109484;1250;66448;-55
2023/04/11 09:27:18;;;;;;;5.50;1.40;;;;;;;17.86;43.11;100116.20;109443;1249;73819;-55
2023/04/11 09:29:48;;;;;;;3.90;1.40;;;;;;;17.84;43.90;100111.79;109335;1250;61009;-55
2023/04/11 09:32:32;;;;;;;4.50;1.60;;;;;;;17.88;43.61;100106.27;109388;1249;60313;-56
2023/04/11 09:35:10;;;;;;;5.10;1.80;;;;;;;17.99;44.38;100095.14;109437;1249;74888;-57
2023/04/11 09:37:55;;;;;;;4.30;1.80;;;;;;;18.13;44.74;100091.66;109485;1249;67516;-56
2023/04/11 09:40:25;;;;;;;4.90;1.50;;;;;;;18.32;43.44;100070.96;109422;1250;72990;-56
2023/04/11 09:43:01;;;;;;;3.80;1.70;;;;;;;18.47;43.31;100058.45;109422;1249;61438;-56
2023/04/11 09:45:30;;;;;;;4.90;1.90;;;;;;;18.64;42.49;100061.20;109381;1250;60659;-56
2023/04/11 09:48:11;;;;;;;;;;;;;;;18.69;41.78;100057.60;109509;1249;75026;-58
2023/04/11 09:50:40;;;;;;;5.20;1.80;;;;;;;18.76;42.89;100049.45;109480;1249;67103;-56
2023/04/11 09:53:09;;;;;;;6.00;2.10;;;;;;;19.00;42.97;100046.11;109403;1249;71952;-57
2023/04/11 09:55:38;;;;;;;7.10;2.20;;;;;;;19.32;42.71;100045.95;109451;1250;61774;-54
2023/04/11 09:58:06;;;;;;;8.30;2.40;;;;;;;19.53;41.43;100039.27;109504;1250;61733;-55
2023/04/11 10:00:35;;;;;;;4.30;2.20;;;;;;;19.54;40.72;100043.04;109294;1250;75716;-55
2023/04/11 10:03:04;;;;;;;6.90;1.40;;;;;;;19.48;40.62;100047.25;109469;1249;67977;-55
2023/04/11 10:05:35;;;;;;;4.00;1.60;;;;;;;19.31;40.77;100049.05;109439;1249;73889;-55
2023/04/11 10:08:07;;;;;;;5.00;1.90;;;;;;;19.12;41.79;100044.16;109429;1249;61191;-55
2023/04/11 10:10:35;;;;;;;5.40;1.70;;;;;;;19.08;42.30;100023.59;109442;1249;61382;-55
2023/04/11 10:13:34;;;;;;;5.30;2.50;;;;;;;19.07;42.30;100028.24;109275;1250;74878;-55
2023/04/11 10:16:15;;;;;;;3.30;1.70;;;;;;;19.00;42.33;100028.15;109443;1249;67453;-54
2023/04/11 10:18:50;;;;;;;6.10;1.80;;;;;;;18.89;42.40;100023.66;109400;1249;72633;-57
2023/04/11 10:21:34;;;;;;;3.80;1.70;;;;;;;18.90;43.70;100017.41;109442;1249;61980;-55
2023/04/11 10:24:09;;;;;;;3.80;1.50;;;;;;;19.05;43.26;100006.65;109494;1249;61478;-55
2023/04/11 10:26:52;;;;;;;6.80;2.10;;;;;;;19.11;43.10;99998.92;109357;1249;75088;-55
2023/04/11 10:29:39;;;;;;;2.80;1.20;;;;;;;19.12;42.50;99997.13;109469;1249;66709;-55
2023/04/11 10:32:11;;;;;;;5.30;2.20;;;;;;;19.06;42.72;99998.70;109384;1249;73638;-58
2023/04/11 10:34:49;;;;;;;6.10;1.90;;;;;;;19.05;43.29;99981.67;109450;1249;60041;-55
2023/04/11 10:37:36;;;;;;;4.50;1.90;;;;;;;19.10;42.89;99965.66;109481;1249;61578;-55
2023/04/11 10:40:08;;;;;;;5.00;1.70;;;;;;;19.13;42.76;99976.39;109427;1249;74523;-58
2023/04/11 10:42:43;;;;;;;6.10;1.70;;;;;;;19.09;42.60;99967.40;109539;1249;67267;-55
2023/04/11 10:45:21;;;;;;;5.60;1.80;;;;;;;19.04;42.97;99953.29;109486;1249;72644;-55
2023/04/11 10:47:55;;;;;;;4.00;1.90;;;;;;;19.05;42.44;99949.00;109471;1249;61220;-55
2023/04/11 10:50:26;;;;;;;4.60;2.10;;;;;;;19.03;42.15;99944.61;109438;1249;61320;-55
2023/04/11 10:52:59;;;;;;;5.50;2.10;;;;;;;18.94;42.25;99935.88;109460;1249;74591;-54
2023/04/11 10:55:31;;;;;;;5.50;1.70;;;;;;;18.94;44.14;99931.77;109436;1249;67760;-54
2023/04/11 10:58:06;;;;;;;;;;;;;;;19.03;43.72;99914.65;109461;1249;73638;-55
2023/04/11 11:00:51;;;;;;;4.90;1.70;;;;;;;19.16;42.53;99914.80;109471;1249;60175;-55
2023/04/11 11:03:25;;;;;;;4.20;1.90;;;;;;;19.22;42.39;99911.90;109440;1249;60684;-55
2023/04/11 11:06:05;;;;;;;6.00;1.60;;;;;;;19.26;42.11;99914.80;109501;1249;74817;-55
2023/04/11 11:08:40;;;;;;;3.40;1.60;;;;;;;19.30;42.91;99909.61;109443;1249;67800;-58
2023/04/11 11:11:09;;;;;;;4.00;1.50;;;;;;;19.38;42.51;99910.11;109501;1249;73455;-55
2023/04/11 11:13:40;;;;;;;3.30;1.80;;;;;;;19.39;41.64;99907.80;109445;1249;61309;-55
2023/04/11 11:16:12;;;;;;;4.20;1.90;;;;;;;19.37;41.59;99897.52;109504;1249;60464;-55
2023/04/11 11:18:52;;;;;;;4.10;1.80;;;;;;;19.43;41.89;99890.71;109431;1250;73854;-58
2023/04/11 11:21:23;;;;;;;4.60;1.70;;;;;;;19.54;42.44;99886.63;109512;1249;67195;-55
2023/04/11 11:23:56;;;;;;;3.80;1.90;;;;;;;19.58;41.39;99878.73;109465;1249;73605;-54
2023/04/11 11:26:38;;;;;;;6.00;2.20;;;;;;;19.55;41.82;99882.84;109412;1249;60594;-57
2023/04/11 11:29:07;;;;;;;4.90;2.00;;;;;;;19.54;42.05;99886.30;109440;1249;61211;-54
2023/04/11 11:31:40;;;;;;;6.20;1.80;;;;;;;19.48;41.80;99882.45;109497;1249;73739;-55
2023/04/11 11:34:10;;;;;;;5.50;2.20;;;;;;;19.42;42.20;99887.58;109444;1249;67096;-55
2023/04/11 11:36:52;;;;;;;4.60;2.00;;;;;;;19.39;42.95;99884.42;109532;1249;73607;-54